Time;durP1;ratioP1;P1;durP2;ratioP2;P2;SDS_P1;SDS_P2;PMS_P1;PMS_P2;Temp;Humidity;BMP_temperature;BMP_pressure;BME280_temperature;BME280_humidity;BME280_pressure;Samples;Min_cycle;Max_cycle;Signal;HPM_P1;HPM_P2
2024/01/09 00:02:56;;;;;;;701.67;350.55;;;;;;;;;;10324254;28;20511;-80
2024/01/09 00:07:56;;;;;;;689.33;304.83;;;;;;;;;;10307871;28;20141;-82
2024/01/09 00:12:58;;;;;;;702.55;348.45;;;;;;;;;;10306473;28;20026;-81
2024/01/09 00:17:58;;;;;;;698.53;323.05;;;;;;;;;;10322866;28;20053;-81
2024/01/09 00:22:59;;;;;;;688.83;299.42;;;;;;;;;;10305674;28;20023;-82
2024/01/09 00:27:59;;;;;;;692.28;300.33;;;;;;;;;;10305019;28;20604;-80
2024/01/09 00:33:00;;;;;;;691.30;301.42;;;;;;;;;;10314551;28;20030;-79
2024/01/09 00:38:00;;;;;;;697.63;337.80;;;;;;;;;;10314894;28;20034;-79
2024/01/09 00:43:00;;;;;;;701.75;357.73;;;;;;;;;;10298462;28;20026;-78
2024/01/09 00:48:01;;;;;;;691.58;311.45;;;;;;;;;;10345619;28;20034;-75
2024/01/09 00:53:01;;;;;;;694.63;319.92;;;;;;;;;;10358297;28;20078;-73
2024/01/09 00:58:01;;;;;;;699.70;343.88;;;;;;;;;;10361241;28;20026;-73
2024/01/09 01:03:03;;;;;;;696.35;326.80;;;;;;;;;;10352907;28;20097;-74
2024/01/09 01:08:04;;;;;;;685.17;288.90;;;;;;;;;;10317368;28;20038;-82
2024/01/09 01:13:04;;;;;;;681.35;269.02;;;;;;;;;;10338514;28;20791;-74
2024/01/09 01:18:04;;;;;;;687.60;305.48;;;;;;;;;;10326716;28;20434;-74
2024/01/09 01:23:04;;;;;;;683.92;287.10;;;;;;;;;;10371469;28;20090;-73
2024/01/09 01:28:05;;;;;;;689.53;308.13;;;;;;;;;;10372032;28;20141;-79
2024/01/09 01:33:06;;;;;;;686.00;309.33;;;;;;;;;;10369854;28;20025;-73
2024/01/09 01:38:08;;;;;;;687.78;300.40;;;;;;;;;;10358378;28;20335;-78
2024/01/09 01:43:10;;;;;;;684.22;287.63;;;;;;;;;;10359891;28;20017;-83
2024/01/09 01:48:10;;;;;;;677.58;260.42;;;;;;;;;;10373554;28;20514;-76
2024/01/09 01:53:15;;;;;;;694.88;328.05;;;;;;;;;;10351593;28;20036;-82
2024/01/09 01:58:15;;;;;;;615.67;270.10;;;;;;;;;;10352247;28;20026;-78
2024/01/09 02:03:18;;;;;;;319.77;292.65;;;;;;;;;;10370055;28;20025;-81
2024/01/09 02:08:19;;;;;;;369.15;329.70;;;;;;;;;;10367481;28;20030;-77
2024/01/09 02:13:20;;;;;;;333.98;303.42;;;;;;;;;;10368822;28;20029;-82
2024/01/09 02:18:20;;;;;;;250.18;230.27;;;;;;;;;;10353252;28;20404;-83
2024/01/09 02:23:21;;;;;;;18.65;12.65;;;;;;;;;;10349510;28;20469;-82
2024/01/09 02:28:27;;;;;;;22.73;12.90;;;;;;;;;;10349458;28;20061;-78
2024/01/09 02:33:28;;;;;;;26.80;13.32;;;;;;;;;;10354635;28;20088;-78
2024/01/09 02:38:29;;;;;;;27.90;15.10;;;;;;;;;;10372665;28;20055;-74
2024/01/09 02:43:34;;;;;;;29.48;16.55;;;;;;;;;;10377253;28;20076;-78
2024/01/09 02:48:34;;;;;;;26.65;14.75;;;;;;;;;;10366730;28;20034;-78
2024/01/09 02:53:34;;;;;;;31.95;15.25;;;;;;;;;;10337972;28;20056;-79
2024/01/09 02:58:56;;;;;;;20.73;11.05;;;;;;;;;;10306775;28;20031;-85
2024/01/09 03:03:56;;;;;;;24.60;11.05;;;;;;;;;;10310115;28;20018;-83
2024/01/09 03:08:57;;;;;;;13.48;7.68;;;;;;;;;;10307735;28;20470;-77
2024/01/09 03:13:57;;;;;;;13.27;6.25;;;;;;;;;;10323823;28;20141;-77
2024/01/09 03:18:58;;;;;;;8.02;4.85;;;;;;;;;;10303203;28;20485;-82
2024/01/09 03:23:58;;;;;;;12.05;4.22;;;;;;;;;;10307188;28;20030;-77
2024/01/09 03:29:02;;;;;;;9.30;7.88;;;;;;;;;;10299261;28;20540;-82
2024/01/09 03:34:03;;;;;;;11.13;9.10;;;;;;;;;;10327219;28;20094;-81
2024/01/09 03:39:04;;;;;;;219.55;203.25;;;;;;;;;;10322769;28;20484;-80
2024/01/09 03:44:04;;;;;;;310.20;281.23;;;;;;;;;;10326506;28;20022;-81
2024/01/09 03:49:05;;;;;;;176.98;164.77;;;;;;;;;;10323520;28;20409;-83
2024/01/09 03:54:05;;;;;;;17.83;16.30;;;;;;;;;;10323679;28;20391;-79
2024/01/09 03:59:05;;;;;;;17.37;16.00;;;;;;;;;;10291054;28;20056;-80
2024/01/09 04:04:07;;;;;;;55.30;51.33;;;;;;;;;;10364422;23;20105;-80
2024/01/09 04:09:07;;;;;;;29.40;27.17;;;;;;;;;;10365347;28;20100;-82
2024/01/09 04:14:07;;;;;;;15.30;14.02;;;;;;;;;;10366183;28;20030;-81
2024/01/09 04:19:07;;;;;;;12.73;8.07;;;;;;;;;;10363150;28;20048;-80
2024/01/09 04:24:08;;;;;;;9.77;6.60;;;;;;;;;;10362570;28;20029;-80
2024/01/09 04:29:08;;;;;;;23.70;13.45;;;;;;;;;;10380527;28;20032;-76
2024/01/09 04:34:08;;;;;;;10.43;6.70;;;;;;;;;;10373617;28;20026;-79
2024/01/09 04:39:08;;;;;;;21.27;19.42;;;;;;;;;;10376481;28;20022;-80
2024/01/09 04:44:09;;;;;;;33.88;31.50;;;;;;;;;;10370357;28;20022;-81
2024/01/09 04:49:09;;;;;;;12.20;8.15;;;;;;;;;;10361756;28;20032;-79
2024/01/09 04:54:09;;;;;;;12.85;6.93;;;;;;;;;;10357718;28;20464;-76
2024/01/09 04:59:10;;;;;;;11.85;7.18;;;;;;;;;;10357325;28;20081;-81
2024/01/09 05:04:10;;;;;;;12.00;6.63;;;;;;;;;;10390210;28;20056;-78
2024/01/09 05:09:11;;;;;;;16.30;7.30;;;;;;;;;;10400515;28;20037;-76
2024/01/09 05:14:11;;;;;;;12.82;7.13;;;;;;;;;;10382779;28;20065;-80
2024/01/09 05:19:11;;;;;;;14.45;10.52;;;;;;;;;;10391998;28;20032;-79
2024/01/09 05:24:11;;;;;;;13.57;8.45;;;;;;;;;;10408866;28;20586;-79
2024/01/09 05:29:12;;;;;;;13.52;10.13;;;;;;;;;;10387965;28;20037;-77
2024/01/09 05:34:12;;;;;;;61.58;58.15;;;;;;;;;;10387739;28;20075;-74
2024/01/09 05:39:12;;;;;;;19.38;17.45;;;;;;;;;;10391691;28;20518;-77
2024/01/09 05:44:12;;;;;;;22.10;20.27;;;;;;;;;;10409534;28;20040;-76
2024/01/09 05:49:13;;;;;;;11.88;10.65;;;;;;;;;;10390118;28;20488;-78
2024/01/09 05:54:14;;;;;;;8.23;7.43;;;;;;;;;;10392464;28;20031;-75
2024/01/09 05:59:15;;;;;;;11.68;6.15;;;;;;;;;;10394741;28;20457;-78
2024/01/09 06:04:15;;;;;;;17.83;16.60;;;;;;;;;;10408343;28;20140;-76
2024/01/09 06:09:15;;;;;;;15.07;6.60;;;;;;;;;;10391055;28;20033;-78
2024/01/09 06:14:17;;;;;;;112.93;106.38;;;;;;;;;;10394144;28;20048;-77
2024/01/09 06:19:18;;;;;;;99.20;93.50;;;;;;;;;;10400305;28;20277;-76
2024/01/09 06:24:18;;;;;;;20.92;18.83;;;;;;;;;;10412939;28;20049;-73
2024/01/09 06:29:18;;;;;;;7.95;5.93;;;;;;;;;;10420990;28;20037;-77
2024/01/09 06:34:20;;;;;;;9.20;5.35;;;;;;;;;;10370956;28;20025;-79
2024/01/09 06:39:20;;;;;;;7.90;5.05;;;;;;;;;;10350370;28;20029;-78
2024/01/09 06:44:20;;;;;;;13.07;12.10;;;;;;;;;;10348238;28;20430;-79
2024/01/09 06:49:21;;;;;;;23.08;17.35;;;;;;;;;;10348437;28;20037;-79
2024/01/09 06:54:21;;;;;;;8.65;6.55;;;;;;;;;;10367165;28;20477;-80
2024/01/09 06:59:21;;;;;;;46.45;38.60;;;;;;;;;;10348956;28;20112;-78
2024/01/09 07:04:21;;;;;;;145.80;133.13;;;;;;;;;;10347933;28;20464;-76
2024/01/09 07:09:22;;;;;;;16.48;8.80;;;;;;;;;;10349167;28;20086;-78
2024/01/09 07:14:22;;;;;;;13.60;5.40;;;;;;;;;;10352204;28;20025;-80
2024/01/09 07:19:23;;;;;;;120.10;112.72;;;;;;;;;;10331143;28;20289;-77
2024/01/09 07:24:24;;;;;;;107.13;96.63;;;;;;;;;;10347769;28;20022;-78
2024/01/09 07:29:24;;;;;;;321.57;282.53;;;;;;;;;;10350090;28;20030;-78
2024/01/09 07:34:24;;;;;;;384.80;289.50;;;;;;;;;;10364877;28;20030;-75
2024/01/09 07:39:24;;;;;;;665.22;207.27;;;;;;;;;;10361778;28;20037;-77
2024/01/09 07:44:26;;;;;;;668.28;231.88;;;;;;;;;;10363707;28;20052;-79
2024/01/09 07:49:26;;;;;;;669.40;229.50;;;;;;;;;;10343748;28;20994;-79
2024/01/09 07:54:27;;;;;;;668.15;222.10;;;;;;;;;;10364668;28;20022;-82
2024/01/09 07:59:27;;;;;;;665.87;217.33;;;;;;;;;;10333814;28;20524;-79
2024/01/09 08:04:28;;;;;;;666.97;240.45;;;;;;;;;;10362923;28;20438;-77
2024/01/09 08:09:28;;;;;;;673.70;244.77;;;;;;;;;;10361806;28;20407;-80
2024/01/09 08:14:28;;;;;;;670.00;243.80;;;;;;;;;;10362308;28;20029;-78
2024/01/09 08:19:28;;;;;;;681.22;262.70;;;;;;;;;;10362636;28;20026;-81
2024/01/09 08:24:29;;;;;;;668.23;234.77;;;;;;;;;;10352846;28;20022;-72
2024/01/09 08:29:31;;;;;;;672.95;250.98;;;;;;;;;;10378226;28;20333;-79
2024/01/09 08:34:31;;;;;;;673.25;247.43;;;;;;;;;;10375958;28;20046;-80
2024/01/09 08:39:32;;;;;;;670.75;228.23;;;;;;;;;;10345142;28;20061;-79
2024/01/09 08:44:34;;;;;;;671.28;236.85;;;;;;;;;;10347211;28;20040;-83
2024/01/09 08:49:34;;;;;;;674.58;251.07;;;;;;;;;;10347611;28;20177;-81
2024/01/09 08:54:34;;;;;;;683.80;293.83;;;;;;;;;;10352015;28;20227;-77
2024/01/09 08:59:34;;;;;;;682.42;270.48;;;;;;;;;;10352561;28;20041;-82
2024/01/09 09:04:34;;;;;;;677.08;261.17;;;;;;;;;;10342123;28;20053;-79
2024/01/09 09:09:35;;;;;;;677.67;264.50;;;;;;;;;;10310721;28;20065;-78
2024/01/09 09:14:36;;;;;;;681.58;247.90;;;;;;;;;;10329880;28;20110;-78
2024/01/09 09:19:36;;;;;;;674.38;243.95;;;;;;;;;;10343897;28;20184;-78
2024/01/09 09:24:36;;;;;;;674.10;262.38;;;;;;;;;;10345084;28;20090;-80
2024/01/09 09:29:36;;;;;;;712.60;387.77;;;;;;;;;;10328269;28;20049;-81
2024/01/09 09:34:40;;;;;;;713.17;378.38;;;;;;;;;;10326970;28;20335;-79
2024/01/09 09:39:41;;;;;;;713.42;387.38;;;;;;;;;;10342637;28;20030;-79
2024/01/09 09:44:42;;;;;;;524.95;313.65;;;;;;;;;;10396007;23;20084;-77
2024/01/09 09:49:42;;;;;;;27.80;25.10;;;;;;;;;;10421624;28;20034;-77
2024/01/09 09:54:44;;;;;;;13.93;11.80;;;;;;;;;;10421500;28;20025;-77
2024/01/09 09:59:44;;;;;;;11.32;8.55;;;;;;;;;;10421167;28;20316;-77
2024/01/09 10:04:48;;;;;;;9.63;8.52;;;;;;;;;;10420165;28;20196;-77
2024/01/09 10:09:49;;;;;;;30.38;27.55;;;;;;;;;;10423204;28;20029;-77
2024/01/09 10:15:03;;;;;;;11.15;7.05;;;;;;;;;;10403468;28;20271;-77
2024/01/09 10:20:04;;;;;;;6.55;4.38;;;;;;;;;;10420988;28;20052;-77
2024/01/09 10:25:05;;;;;;;5.72;3.85;;;;;;;;;;10426026;28;20021;-77
2024/01/09 10:30:09;;;;;;;11.52;4.55;;;;;;;;;;10423021;28;20033;-76
2024/01/09 10:35:10;;;;;;;12.68;8.95;;;;;;;;;;10421376;28;20277;-78
2024/01/09 10:40:10;;;;;;;11.95;6.70;;;;;;;;;;10420645;28;20068;-77
2024/01/09 10:45:10;;;;;;;9.15;5.13;;;;;;;;;;10419310;28;20638;-77
2024/01/09 10:50:11;;;;;;;12.73;5.50;;;;;;;;;;10420125;28;20029;-77
2024/01/09 10:55:12;;;;;;;11.00;5.95;;;;;;;;;;10419216;28;20097;-77
2024/01/09 11:00:12;;;;;;;13.68;5.75;;;;;;;;;;10401537;28;20029;-77
2024/01/09 11:05:13;;;;;;;16.37;6.10;;;;;;;;;;10401423;28;20056;-76
2024/01/09 11:10:17;;;;;;;17.83;7.30;;;;;;;;;;10418733;28;20295;-77
2024/01/09 11:15:26;;;;;;;9.32;5.63;;;;;;;;;;10401876;28;20063;-78
2024/01/09 11:20:27;;;;;;;17.30;8.20;;;;;;;;;;10419094;28;20313;-77
2024/01/09 11:25:31;;;;;;;17.35;7.72;;;;;;;;;;10418252;28;20184;-77
2024/01/09 11:30:31;;;;;;;21.02;9.77;;;;;;;;;;10418853;28;20017;-77
2024/01/09 11:35:37;;;;;;;11.63;7.05;;;;;;;;;;10417864;28;20040;-76
2024/01/09 11:40:37;;;;;;;15.75;6.43;;;;;;;;;;10400024;28;20055;-78
2024/01/09 11:45:37;;;;;;;15.90;7.87;;;;;;;;;;10417999;28;20037;-77
2024/01/09 11:50:38;;;;;;;14.50;7.80;;;;;;;;;;10417444;28;20080;-76
2024/01/09 11:55:38;;;;;;;14.05;8.13;;;;;;;;;;10399812;28;20333;-77
2024/01/09 12:00:38;;;;;;;16.50;7.32;;;;;;;;;;10417198;28;20056;-76
2024/01/09 12:05:38;;;;;;;13.23;7.82;;;;;;;;;;10415776;28;20029;-77
2024/01/09 12:10:45;;;;;;;18.67;8.65;;;;;;;;;;10412260;28;20021;-75
2024/01/09 12:15:46;;;;;;;13.73;8.50;;;;;;;;;;10412566;28;20311;-77
2024/01/09 12:20:47;;;;;;;19.00;8.23;;;;;;;;;;10409588;28;20259;-77
2024/01/09 12:25:48;;;;;;;12.70;6.97;;;;;;;;;;10410242;28;20338;-76
2024/01/09 12:30:49;;;;;;;15.85;9.18;;;;;;;;;;10396043;28;20033;-77
2024/01/09 12:35:49;;;;;;;20.27;8.73;;;;;;;;;;10419692;28;20017;-77
2024/01/09 12:40:57;;;;;;;19.33;8.73;;;;;;;;;;10401155;28;20025;-78
2024/01/09 12:45:59;;;;;;;10.93;6.55;;;;;;;;;;10418889;28;20371;-76
2024/01/09 12:51:01;;;;;;;14.77;8.40;;;;;;;;;;10402071;28;20057;-77
2024/01/09 12:56:03;;;;;;;10.63;6.53;;;;;;;;;;10419669;28;20036;-77
2024/01/09 13:01:04;;;;;;;10.20;6.57;;;;;;;;;;10419135;28;20096;-77
2024/01/09 13:06:06;;;;;;;14.10;7.38;;;;;;;;;;10401300;28;20029;-77
2024/01/09 13:11:07;;;;;;;15.43;7.75;;;;;;;;;;10419216;28;20376;-78
2024/01/09 13:16:08;;;;;;;13.90;6.85;;;;;;;;;;10400834;28;20326;-77
2024/01/09 13:21:08;;;;;;;10.90;8.48;;;;;;;;;;10417281;28;20248;-77
2024/01/09 13:26:09;;;;;;;7.40;6.13;;;;;;;;;;10418695;28;20029;-77
2024/01/09 13:31:11;;;;;;;5.63;4.45;;;;;;;;;;10416414;28;20036;-77
2024/01/09 13:36:11;;;;;;;6.20;5.60;;;;;;;;;;10418663;28;20234;-78
2024/01/09 13:41:13;;;;;;;7.22;5.13;;;;;;;;;;10417464;28;20033;-76
2024/01/09 13:46:14;;;;;;;6.85;4.60;;;;;;;;;;10399028;28;20262;-75
2024/01/09 13:51:14;;;;;;;9.48;7.47;;;;;;;;;;10399601;28;20067;-77
2024/01/09 13:56:15;;;;;;;7.13;6.40;;;;;;;;;;10416785;28;20215;-76
2024/01/09 14:01:15;;;;;;;7.95;6.82;;;;;;;;;;10417552;28;20279;-77
2024/01/09 14:06:16;;;;;;;12.40;5.90;;;;;;;;;;10421462;28;20037;-77
2024/01/09 14:11:16;;;;;;;8.57;4.70;;;;;;;;;;10421613;28;20287;-76
2024/01/09 14:16:17;;;;;;;5.47;4.10;;;;;;;;;;10403251;28;20053;-75
2024/01/09 14:21:17;;;;;;;8.35;7.13;;;;;;;;;;10420850;28;20369;-77
2024/01/09 14:26:20;;;;;;;6.75;5.68;;;;;;;;;;10419950;28;20337;-76
2024/01/09 14:31:21;;;;;;;12.80;6.15;;;;;;;;;;10419772;28;20243;-76
2024/01/09 14:36:22;;;;;;;5.55;4.85;;;;;;;;;;10419965;28;20206;-78
2024/01/09 14:41:22;;;;;;;7.70;5.45;;;;;;;;;;10419841;28;20017;-79
2024/01/09 14:46:22;;;;;;;12.15;6.75;;;;;;;;;;10420307;28;20271;-78
2024/01/09 14:51:22;;;;;;;7.57;4.72;;;;;;;;;;10419405;28;20034;-78
2024/01/09 14:56:22;;;;;;;9.70;5.82;;;;;;;;;;10419618;28;20086;-77
2024/01/09 15:01:23;;;;;;;10.00;6.13;;;;;;;;;;10415934;28;20215;-76
2024/01/09 15:06:23;;;;;;;9.13;5.35;;;;;;;;;;10378292;28;20215;-77
2024/01/09 15:11:24;;;;;;;7.13;5.05;;;;;;;;;;10378687;28;20022;-77
2024/01/09 15:16:24;;;;;;;13.57;6.28;;;;;;;;;;10377953;28;20029;-75
2024/01/09 15:21:24;;;;;;;8.75;5.68;;;;;;;;;;10376629;28;20049;-77
2024/01/09 15:26:24;;;;;;;6.90;5.50;;;;;;;;;;10359846;28;20384;-78
2024/01/09 15:31:25;;;;;;;7.50;5.85;;;;;;;;;;10377846;28;20060;-77
2024/01/09 15:36:25;;;;;;;12.10;8.40;;;;;;;;;;10376923;28;20032;-78
2024/01/09 15:41:26;;;;;;;11.20;8.38;;;;;;;;;;10377275;28;20029;-79
2024/01/09 15:46:27;;;;;;;14.18;7.32;;;;;;;;;;10351576;28;20050;-78
2024/01/09 15:51:30;;;;;;;18.33;10.75;;;;;;;;;;10334991;28;20026;-78
2024/01/09 15:56:31;;;;;;;14.10;8.57;;;;;;;;;;10336017;28;20044;-79
2024/01/09 16:01:31;;;;;;;14.15;8.85;;;;;;;;;;10334960;28;20029;-77
2024/01/09 16:06:32;;;;;;;10.07;6.23;;;;;;;;;;10336242;28;20026;-78
2024/01/09 16:11:33;;;;;;;9.85;5.65;;;;;;;;;;10336191;28;20627;-77
2024/01/09 16:16:33;;;;;;;6.47;5.65;;;;;;;;;;10335344;28;20182;-77
2024/01/09 16:21:34;;;;;;;10.55;7.10;;;;;;;;;;10334557;28;20081;-78
2024/01/09 16:26:36;;;;;;;9.90;7.03;;;;;;;;;;10334262;28;20097;-76
2024/01/09 16:31:36;;;;;;;12.60;7.35;;;;;;;;;;10335884;28;20022;-77
2024/01/09 16:36:37;;;;;;;14.23;10.38;;;;;;;;;;10334031;28;20018;-77
2024/01/09 16:41:41;;;;;;;12.88;9.05;;;;;;;;;;10335085;28;20115;-76
2024/01/09 16:46:42;;;;;;;17.52;10.02;;;;;;;;;;10375250;28;20350;-77
2024/01/09 16:51:42;;;;;;;19.30;8.73;;;;;;;;;;10375207;28;20040;-77
2024/01/09 16:56:43;;;;;;;17.15;8.48;;;;;;;;;;10375424;28;20382;-77
2024/01/09 17:01:43;;;;;;;14.07;8.82;;;;;;;;;;10375134;28;20029;-77
2024/01/09 17:06:44;;;;;;;12.60;8.77;;;;;;;;;;10357401;28;20270;-76
2024/01/09 17:11:44;;;;;;;10.32;7.82;;;;;;;;;;10376830;28;20259;-77
2024/01/09 17:16:45;;;;;;;10.43;7.72;;;;;;;;;;10365289;28;20315;-75
2024/01/09 17:21:45;;;;;;;19.90;8.00;;;;;;;;;;10382490;28;20312;-76
2024/01/09 17:26:46;;;;;;;10.90;7.22;;;;;;;;;;10365509;28;20022;-79
2024/01/09 17:31:46;;;;;;;11.40;7.65;;;;;;;;;;10395997;28;20029;-77
2024/01/09 17:36:46;;;;;;;7.77;5.23;;;;;;;;;;10419112;28;20025;-76
2024/01/09 17:41:47;;;;;;;7.53;4.83;;;;;;;;;;10420693;28;20101;-79
2024/01/09 17:46:47;;;;;;;18.83;5.07;;;;;;;;;;10420394;28;21122;-77
2024/01/09 17:51:47;;;;;;;8.25;3.85;;;;;;;;;;10420329;28;20021;-78
2024/01/09 17:56:48;;;;;;;39.80;21.88;;;;;;;;;;10404353;28;20009;-78
2024/01/09 18:01:50;;;;;;;9.18;4.15;;;;;;;;;;10420454;28;20032;-77
2024/01/09 18:06:50;;;;;;;7.22;3.78;;;;;;;;;;10421757;28;20112;-77
2024/01/09 18:11:51;;;;;;;7.32;3.58;;;;;;;;;;10421276;28;20021;-76
2024/01/09 18:16:51;;;;;;;5.22;3.70;;;;;;;;;;10421224;28;20218;-78
2024/01/09 18:21:52;;;;;;;6.95;3.78;;;;;;;;;;10402481;28;20027;-78
2024/01/09 18:26:52;;;;;;;8.52;4.30;;;;;;;;;;10390608;28;20013;-79
2024/01/09 18:31:52;;;;;;;10.43;7.28;;;;;;;;;;10420913;28;20403;-78
2024/01/09 18:36:53;;;;;;;10.02;5.78;;;;;;;;;;10417354;28;20029;-78
2024/01/09 18:41:56;;;;;;;10.40;4.20;;;;;;;;;;10409310;28;20083;-77
2024/01/09 18:46:56;;;;;;;8.40;3.17;;;;;;;;;;10418396;28;20297;-76
2024/01/09 18:51:56;;;;;;;9.07;5.47;;;;;;;;;;10406112;28;20014;-77
2024/01/09 18:56:57;;;;;;;16.17;6.30;;;;;;;;;;10398982;28;20037;-77
2024/01/09 19:01:57;;;;;;;11.80;4.95;;;;;;;;;;10419084;28;20031;-79
2024/01/09 19:06:58;;;;;;;16.42;6.95;;;;;;;;;;10418027;28;20239;-79
2024/01/09 19:11:59;;;;;;;9.63;4.95;;;;;;;;;;10403351;28;20074;-77
2024/01/09 19:16:59;;;;;;;7.88;6.43;;;;;;;;;;10409649;28;20326;-79
2024/01/09 19:21:59;;;;;;;12.55;5.75;;;;;;;;;;10417875;28;20198;-78
2024/01/09 19:27:02;;;;;;;9.30;4.80;;;;;;;;;;10420729;28;20024;-79
2024/01/09 19:32:03;;;;;;;8.60;4.45;;;;;;;;;;10417221;28;20310;-79
2024/01/09 19:37:03;;;;;;;9.53;5.57;;;;;;;;;;10414543;28;20033;-78
2024/01/09 19:42:03;;;;;;;7.18;4.30;;;;;;;;;;10395750;28;20625;-79
2024/01/09 19:47:04;;;;;;;8.85;4.68;;;;;;;;;;10393833;28;20097;-76
2024/01/09 19:52:05;;;;;;;11.30;5.38;;;;;;;;;;10382589;28;20059;-76
2024/01/09 19:57:05;;;;;;;7.13;4.97;;;;;;;;;;10387515;28;20257;-74
2024/01/09 20:02:05;;;;;;;14.00;6.50;;;;;;;;;;10384803;28;20018;-76
2024/01/09 20:07:06;;;;;;;8.60;5.93;;;;;;;;;;10393246;28;20037;-77
2024/01/09 20:12:06;;;;;;;16.60;6.13;;;;;;;;;;10370928;28;20064;-74
2024/01/09 20:17:07;;;;;;;9.60;5.72;;;;;;;;;;10395772;28;20013;-75
2024/01/09 20:22:07;;;;;;;12.85;5.75;;;;;;;;;;10385395;28;20018;-75
2024/01/09 20:27:07;;;;;;;15.52;5.93;;;;;;;;;;10390202;28;20242;-74
2024/01/09 20:32:08;;;;;;;14.40;5.30;;;;;;;;;;10377045;28;20088;-74
2024/01/09 20:37:08;;;;;;;12.27;5.95;;;;;;;;;;10415030;28;20018;-73
2024/01/09 20:42:09;;;;;;;11.55;5.32;;;;;;;;;;10414693;28;20223;-73
2024/01/09 20:47:09;;;;;;;9.88;4.43;;;;;;;;;;10394676;28;20277;-74
2024/01/09 20:52:09;;;;;;;7.68;4.40;;;;;;;;;;10402911;28;20235;-73
2024/01/09 20:57:09;;;;;;;7.35;4.65;;;;;;;;;;10403219;28;20048;-73
2024/01/09 21:02:10;;;;;;;11.32;6.18;;;;;;;;;;10420464;28;20222;-74
2024/01/09 21:07:10;;;;;;;11.23;5.93;;;;;;;;;;10419221;28;20267;-74
2024/01/09 21:12:10;;;;;;;7.78;5.28;;;;;;;;;;10419424;28;20108;-73
2024/01/09 21:17:10;;;;;;;14.48;7.47;;;;;;;;;;10419067;28;20041;-73
2024/01/09 21:22:11;;;;;;;14.80;5.72;;;;;;;;;;10414033;28;20045;-74
2024/01/09 21:27:11;;;;;;;12.38;6.28;;;;;;;;;;10421296;28;20334;-75
2024/01/09 21:32:13;;;;;;;7.50;5.13;;;;;;;;;;10421338;28;20068;-74
2024/01/09 21:37:13;;;;;;;7.07;4.47;;;;;;;;;;10419981;28;20230;-73
2024/01/09 21:42:14;;;;;;;7.43;5.15;;;;;;;;;;10400609;28;20042;-73
2024/01/09 21:47:14;;;;;;;5.13;3.88;;;;;;;;;;10418156;28;20021;-74
2024/01/09 21:52:15;;;;;;;8.73;4.32;;;;;;;;;;10405396;28;20360;-74
2024/01/09 21:57:15;;;;;;;7.45;5.90;;;;;;;;;;10400553;28;20350;-73
2024/01/09 22:02:15;;;;;;;8.18;5.97;;;;;;;;;;10418482;28;20030;-75
2024/01/09 22:07:16;;;;;;;8.60;5.53;;;;;;;;;;10417482;28;20222;-74
2024/01/09 22:12:16;;;;;;;6.25;4.35;;;;;;;;;;10399898;28;20056;-73
2024/01/09 22:17:16;;;;;;;6.53;3.25;;;;;;;;;;10403719;28;20242;-74
2024/01/09 22:22:16;;;;;;;6.00;4.57;;;;;;;;;;10398946;28;20158;-75
2024/01/09 22:27:17;;;;;;;5.63;4.53;;;;;;;;;;10416590;28;20036;-74
2024/01/09 22:32:17;;;;;;;5.55;4.35;;;;;;;;;;10399178;28;20079;-74
2024/01/09 22:37:17;;;;;;;9.07;5.22;;;;;;;;;;10416108;28;20238;-73
2024/01/09 22:42:17;;;;;;;9.68;4.07;;;;;;;;;;10416075;28;20053;-74
2024/01/09 22:47:17;;;;;;;7.63;4.72;;;;;;;;;;10416171;28;20127;-74
2024/01/09 22:52:18;;;;;;;5.95;4.35;;;;;;;;;;10416487;28;20029;-74
2024/01/09 22:57:18;;;;;;;6.53;5.22;;;;;;;;;;10397866;28;20017;-74
2024/01/09 23:02:19;;;;;;;15.60;6.57;;;;;;;;;;10397339;28;20057;-74
2024/01/09 23:07:19;;;;;;;5.63;3.70;;;;;;;;;;10415521;28;20032;-74
2024/01/09 23:12:19;;;;;;;8.35;4.63;;;;;;;;;;10414066;28;20430;-74
2024/01/09 23:17:19;;;;;;;10.32;6.15;;;;;;;;;;10414607;28;20021;-74
2024/01/09 23:22:19;;;;;;;8.13;5.57;;;;;;;;;;10414725;28;20025;-74
2024/01/09 23:27:20;;;;;;;11.90;7.13;;;;;;;;;;10396386;28;20097;-74
2024/01/09 23:32:20;;;;;;;10.65;6.32;;;;;;;;;;10408050;28;20028;-73
2024/01/09 23:37:20;;;;;;;11.80;6.03;;;;;;;;;;10407130;28;20022;-74
2024/01/09 23:42:20;;;;;;;12.77;6.43;;;;;;;;;;10413725;28;20335;-74
2024/01/09 23:47:21;;;;;;;24.98;6.20;;;;;;;;;;10396105;28;20110;-73
2024/01/09 23:52:21;;;;;;;11.23;6.30;;;;;;;;;;10395740;28;20063;-74
2024/01/09 23:57:22;;;;;;;9.68;6.05;;;;;;;;;;10413598;28;20028;-74
